TAF Text Data
IDs:
Format:
Raw Decoded Include METAR

Data at: 0506 UTC 26 May 2022

TAF for:KSBD (San Bernardino Intl, CA, US) issued at 2334 UTC 25 May 2022
Text:KSBD 252334Z 2600/2624 25011KT 6SM HZ SKC
Forecast period:0000 to 0400 UTC 26 May 2022
Forecast type:FROM: standard forecast or significant change
Winds:from the WSW (250 degrees) at 13 MPH (11 knots; 5.7 m/s)
Visibility: 6 sm ( 10 km)
Ceiling:at least 12,000 feet AGL
Clouds:clear skies
Weather:HZ (haze)
Text:FM260400 VRB04KT P6SM SKC
Forecast period:0400 to 1300 UTC 26 May 2022
Forecast type:FROM: standard forecast or significant change
Winds:variable direction winds at 5 MPH (4 knots; 2.1 m/s)
Visibility:6 or more sm (10+ km)
Ceiling:at least 12,000 feet AGL
Clouds:clear skies
Text:FM261300 VRB04KT 5SM HZ SKC
Forecast period:1300 to 2000 UTC 26 May 2022
Forecast type:FROM: standard forecast or significant change
Winds:variable direction winds at 5 MPH (4 knots; 2.1 m/s)
Visibility: 5 sm ( 8 km)
Ceiling:at least 12,000 feet AGL
Clouds:clear skies
Weather:HZ (haze)
Text:FM262000 25010KT 6SM HZ SKC
Forecast period:2000 UTC 26 May 2022 to 0000 UTC 27 May 2022
Forecast type:FROM: standard forecast or significant change
Winds:from the WSW (250 degrees) at 12 MPH (10 knots; 5.1 m/s)
Visibility: 6 sm ( 10 km)
Ceiling:at least 12,000 feet AGL
Clouds:clear skies
Weather:HZ (haze)